createdAt,value
2018-03-30T00:00:46.674Z,12.27
2018-03-30T00:03:15.501Z,11.53
2018-03-30T00:05:45.113Z,12.50
2018-03-30T00:08:14.095Z,10.40
2018-03-30T00:10:49.412Z,10.20
2018-03-30T00:13:18.263Z,11.47
2018-03-30T00:15:47.113Z,10.90
2018-03-30T00:18:16.721Z,10.70
2018-03-30T00:20:46.331Z,10.37
2018-03-30T00:23:15.946Z,10.03
2018-03-30T00:25:45.621Z,10.80
2018-03-30T00:28:14.470Z,9.40
2018-03-30T00:30:43.317Z,9.43
2018-03-30T00:33:12.162Z,10.07
2018-03-30T00:35:41.013Z,10.60
2018-03-30T00:38:10.611Z,9.73
2018-03-30T00:40:40.202Z,8.93
2018-03-30T00:43:09.039Z,8.00
2018-03-30T00:45:38.230Z,8.43
2018-03-30T00:48:07.944Z,8.47
2018-03-30T00:50:36.811Z,8.50
2018-03-30T00:53:06.395Z,8.10
2018-03-30T00:55:35.232Z,7.67
2018-03-30T00:58:04.090Z,7.53
2018-03-30T01:00:33.696Z,7.30
2018-03-30T01:03:03.301Z,8.40
2018-03-30T01:05:32.898Z,7.20
2018-03-30T01:08:02.480Z,7.40
2018-03-30T01:10:31.325Z,8.80
2018-03-30T01:13:00.137Z,5.93
2018-03-30T01:15:29.204Z,7.60
2018-03-30T01:17:58.020Z,7.30
2018-03-30T01:20:26.854Z,7.43
2018-03-30T01:22:57.077Z,7.03
2018-03-30T01:25:26.694Z,8.33
2018-03-30T01:27:57.158Z,7.50
2018-03-30T01:30:26.002Z,6.90
2018-03-30T01:32:55.614Z,7.40
2018-03-30T01:35:25.221Z,7.10
2018-03-30T01:37:54.841Z,7.27
2018-03-30T01:40:25.137Z,6.80
2018-03-30T01:42:53.962Z,7.77
2018-03-30T01:45:22.814Z,7.00
2018-03-30T01:47:51.689Z,7.80
2018-03-30T01:50:20.482Z,6.70
2018-03-30T01:52:49.328Z,8.10
2018-03-30T01:55:18.139Z,7.80
2018-03-30T01:57:46.995Z,8.20
2018-03-30T02:00:15.822Z,7.17
2018-03-30T02:02:44.660Z,7.93
2018-03-30T02:05:13.470Z,7.50
2018-03-30T02:07:42.314Z,7.30
2018-03-30T02:10:11.904Z,7.77
2018-03-30T02:12:40.730Z,7.43
2018-03-30T02:15:10.337Z,8.43
2018-03-30T02:17:39.193Z,7.87
2018-03-30T02:20:08.009Z,8.17
2018-03-30T02:22:37.930Z,8.13
2018-03-30T02:25:06.776Z,7.87
2018-03-30T02:27:35.631Z,9.20
2018-03-30T02:30:04.461Z,7.80
2018-03-30T02:32:33.287Z,8.33
2018-03-30T02:35:02.115Z,9.23
2018-03-30T02:37:30.939Z,9.00
2018-03-30T02:40:00.558Z,7.83
2018-03-30T02:42:30.162Z,9.40
2018-03-30T02:44:59.737Z,8.33
2018-03-30T02:47:29.374Z,8.20
2018-03-30T02:49:58.959Z,8.30
2018-03-30T02:52:27.829Z,8.53
2018-03-30T02:54:56.642Z,8.80
2018-03-30T02:57:25.459Z,7.90
2018-03-30T02:59:55.078Z,8.63
2018-03-30T03:02:23.907Z,8.53
2018-03-30T03:04:52.757Z,8.57
2018-03-30T03:07:21.585Z,8.00
2018-03-30T03:09:50.422Z,7.60
2018-03-30T03:12:19.246Z,8.17
2018-03-30T03:14:48.854Z,9.57
2018-03-30T03:17:18.437Z,8.27
2018-03-30T03:19:48.059Z,7.10
2018-03-30T03:22:17.680Z,8.50
2018-03-30T03:24:47.290Z,8.83
2018-03-30T03:27:16.878Z,8.60
2018-03-30T03:29:45.718Z,8.20
2018-03-30T03:32:14.554Z,8.37
2018-03-30T03:34:44.150Z,7.93
2018-03-30T03:37:12.979Z,8.90
2018-03-30T03:39:41.817Z,8.70
2018-03-30T03:42:10.653Z,8.70
2018-03-30T03:44:39.559Z,7.60
2018-03-30T03:47:08.354Z,8.50
2018-03-30T03:49:37.178Z,7.57
2018-03-30T03:52:06.010Z,9.00
2018-03-30T03:54:34.823Z,8.17
2018-03-30T03:57:03.651Z,8.10
2018-03-30T03:59:32.505Z,8.37
2018-03-30T04:02:01.351Z,8.00
2018-03-30T04:04:30.193Z,8.53
2018-03-30T04:06:59.023Z,8.27
2018-03-30T04:09:27.856Z,8.23
2018-03-30T04:11:56.675Z,9.00
2018-03-30T04:14:26.260Z,8.17
2018-03-30T04:16:55.081Z,7.77
2018-03-30T04:19:24.684Z,8.00
2018-03-30T04:21:54.623Z,8.23
2018-03-30T04:24:23.431Z,7.70
2018-03-30T04:26:52.295Z,7.70
2018-03-30T04:29:21.111Z,7.40
2018-03-30T04:31:49.952Z,7.00
2018-03-30T04:34:19.538Z,7.17
2018-03-30T04:36:49.398Z,7.57
2018-03-30T04:39:18.282Z,6.80
2018-03-30T04:41:47.123Z,7.77
2018-03-30T04:44:15.978Z,6.20
2018-03-30T04:46:44.810Z,6.70
2018-03-30T04:49:13.638Z,6.90
2018-03-30T04:51:42.484Z,6.80
2018-03-30T04:54:11.326Z,6.70
2018-03-30T04:56:40.158Z,7.23
2018-03-30T04:59:09.075Z,6.70
2018-03-30T05:01:38.671Z,7.27
2018-03-30T05:04:07.498Z,7.03
2018-03-30T05:06:36.330Z,7.40
2018-03-30T05:09:05.195Z,7.30
2018-03-30T05:11:34.007Z,7.60
2018-03-30T05:14:02.855Z,7.30
2018-03-30T05:16:31.664Z,8.63
2018-03-30T05:19:00.506Z,7.70
2018-03-30T05:21:30.123Z,8.37
2018-03-30T05:23:59.715Z,7.10
2018-03-30T05:26:29.302Z,8.80
2018-03-30T05:28:58.364Z,7.33
2018-03-30T05:31:28.247Z,7.47
2018-03-30T05:33:57.062Z,8.17
2018-03-30T05:36:25.891Z,7.23
2018-03-30T05:38:54.727Z,8.27
2018-03-30T05:41:23.579Z,8.10
2018-03-30T05:43:52.366Z,8.03
2018-03-30T05:46:22.016Z,7.97
2018-03-30T05:48:50.846Z,9.00
2018-03-30T05:51:20.609Z,7.50
2018-03-30T05:53:50.240Z,8.23
2018-03-30T05:56:19.081Z,8.10
2018-03-30T05:58:48.672Z,8.20
2018-03-30T06:01:17.557Z,7.50
2018-03-30T06:03:47.134Z,7.60
2018-03-30T06:06:15.974Z,8.00
2018-03-30T06:08:44.806Z,7.10
2018-03-30T06:11:14.432Z,8.03
2018-03-30T06:13:43.642Z,7.60
2018-03-30T06:16:13.000Z,8.23
2018-03-30T06:18:42.593Z,8.17
2018-03-30T06:21:12.930Z,7.87
2018-03-30T06:23:42.535Z,7.70
2018-03-30T06:26:12.958Z,6.97
2018-03-30T06:28:42.548Z,7.87
2018-03-30T06:31:11.406Z,7.10
2018-03-30T06:33:40.232Z,7.20
2018-03-30T06:36:09.556Z,8.00
2018-03-30T06:38:39.161Z,7.67
2018-03-30T06:41:08.792Z,7.70
2018-03-30T06:43:38.418Z,7.63
2018-03-30T06:46:07.287Z,7.50
2018-03-30T06:48:37.269Z,7.60
2018-03-30T06:51:06.934Z,7.20
2018-03-30T06:53:35.782Z,7.57
2018-03-30T06:56:05.734Z,7.70
2018-03-30T06:58:34.937Z,8.07
2018-03-30T07:01:03.871Z,8.37
2018-03-30T07:03:33.060Z,8.43
2018-03-30T07:06:01.958Z,7.90
2018-03-30T07:08:31.606Z,8.37
2018-03-30T07:11:00.411Z,8.27
2018-03-30T07:13:29.237Z,8.17
2018-03-30T07:15:58.097Z,8.43
2018-03-30T07:18:26.942Z,9.10
2018-03-30T07:20:55.970Z,9.67
2018-03-30T07:23:24.905Z,8.20
2018-03-30T07:25:53.758Z,8.03
2018-03-30T07:28:22.594Z,8.80
2018-03-30T07:30:52.203Z,8.07
2018-03-30T07:33:21.843Z,7.93
2018-03-30T07:35:50.674Z,8.30
2018-03-30T07:38:19.991Z,8.80
2018-03-30T07:40:49.605Z,7.47
2018-03-30T07:43:19.262Z,8.60
2018-03-30T07:45:48.111Z,7.57
2018-03-30T07:48:17.784Z,8.87
2018-03-30T07:50:46.725Z,7.90
2018-03-30T07:53:16.305Z,7.43
2018-03-30T07:55:45.932Z,8.10
2018-03-30T07:58:14.746Z,7.60
2018-03-30T08:00:43.608Z,8.00
2018-03-30T08:03:12.465Z,7.93
2018-03-30T08:05:42.076Z,6.73
2018-03-30T08:08:10.919Z,7.47
2018-03-30T08:10:39.770Z,9.00
2018-03-30T08:13:08.879Z,7.93
2018-03-30T08:15:38.467Z,7.43
2018-03-30T08:18:07.362Z,8.07
2018-03-30T08:20:36.212Z,7.57
2018-03-30T08:23:05.034Z,6.20
2018-03-30T08:25:33.889Z,6.67
2018-03-30T08:28:02.739Z,6.50
2018-03-30T08:30:31.600Z,5.73
2018-03-30T08:33:00.446Z,5.10
2018-03-30T08:35:29.533Z,5.40
2018-03-30T08:37:58.381Z,4.70
2018-03-30T08:40:28.591Z,5.47
2018-03-30T08:42:58.227Z,4.57
2018-03-30T08:45:27.821Z,5.20
2018-03-30T08:47:56.712Z,3.90
2018-03-30T08:50:25.567Z,3.43
2018-03-30T08:52:55.218Z,7.50
2018-03-30T08:55:24.744Z,3.97
2018-03-30T08:57:53.576Z,4.53
2018-03-30T09:00:23.626Z,4.13
2018-03-30T09:02:52.467Z,3.90
2018-03-30T09:05:22.054Z,4.13
2018-03-30T09:07:51.461Z,3.40
2018-03-30T09:10:21.049Z,3.90
2018-03-30T09:12:49.881Z,3.80
2018-03-30T09:15:18.723Z,3.80
2018-03-30T09:17:47.567Z,3.80
2018-03-30T09:20:16.394Z,4.03
2018-03-30T09:22:45.246Z,3.77
2018-03-30T09:25:14.856Z,4.50
2018-03-30T09:27:43.718Z,4.20
2018-03-30T09:30:12.580Z,4.23
2018-03-30T09:32:42.183Z,3.57
2018-03-30T09:35:11.053Z,4.40
2018-03-30T09:37:39.908Z,3.97
2018-03-30T09:40:09.510Z,4.00
2018-03-30T09:42:38.349Z,3.93
2018-03-30T09:45:07.208Z,3.63
2018-03-30T09:47:36.046Z,4.13
2018-03-30T09:50:05.674Z,2.87
2018-03-30T09:52:34.501Z,3.00
2018-03-30T09:55:03.346Z,3.03
2018-03-30T09:57:32.976Z,3.53
2018-03-30T10:00:01.847Z,3.10
2018-03-30T10:02:31.480Z,2.73
2018-03-30T10:05:01.191Z,3.20
2018-03-30T10:07:30.042Z,2.93
2018-03-30T10:09:58.927Z,2.70
2018-03-30T10:12:28.555Z,2.70
2018-03-30T10:14:57.423Z,3.00
2018-03-30T10:17:26.319Z,3.30
2018-03-30T10:19:55.154Z,3.07
2018-03-30T10:22:24.002Z,2.23
2018-03-30T10:24:52.848Z,2.57
2018-03-30T10:27:22.474Z,3.00
2018-03-30T10:29:51.682Z,2.90
2018-03-30T10:32:21.279Z,2.40
2018-03-30T10:34:50.874Z,2.33
2018-03-30T10:37:20.505Z,3.13
2018-03-30T10:39:49.350Z,3.23
2018-03-30T10:42:18.189Z,3.87
2018-03-30T10:44:47.051Z,3.33
2018-03-30T10:47:16.685Z,3.30
2018-03-30T10:49:45.542Z,3.27
2018-03-30T10:52:15.141Z,2.90
2018-03-30T10:54:44.778Z,3.33
2018-03-30T10:57:14.407Z,3.40
2018-03-30T10:59:43.263Z,3.00
2018-03-30T11:02:12.859Z,3.40
2018-03-30T11:04:42.501Z,3.53
2018-03-30T11:07:12.143Z,3.67
2018-03-30T11:09:40.989Z,4.70
2018-03-30T11:12:10.622Z,4.67
2018-03-30T11:14:39.724Z,4.77
2018-03-30T11:17:08.571Z,4.00
2018-03-30T11:19:38.182Z,4.43
2018-03-30T11:22:07.815Z,3.80
2018-03-30T11:24:36.723Z,3.83
2018-03-30T11:27:05.564Z,3.90
2018-03-30T11:29:34.395Z,4.03
2018-03-30T11:32:03.227Z,3.90
2018-03-30T11:34:32.082Z,4.47
2018-03-30T11:37:00.935Z,4.67
2018-03-30T11:39:30.527Z,4.33
2018-03-30T11:42:00.164Z,4.57
2018-03-30T11:44:29.022Z,5.10
2018-03-30T11:46:59.400Z,4.43
2018-03-30T11:49:28.247Z,5.60
2018-03-30T11:51:57.877Z,4.90
2018-03-30T11:54:27.640Z,4.87
2018-03-30T11:56:56.524Z,4.20
2018-03-30T11:59:26.041Z,4.40
2018-03-30T12:01:55.803Z,4.43
2018-03-30T12:04:25.903Z,4.27
2018-03-30T12:06:55.567Z,4.20
2018-03-30T12:09:24.413Z,4.37
2018-03-30T12:11:54.280Z,4.17
2018-03-30T12:14:23.134Z,4.20
2018-03-30T12:16:52.003Z,3.80
2018-03-30T12:19:21.624Z,4.10
2018-03-30T12:21:51.222Z,4.60
2018-03-30T12:24:20.086Z,3.83
2018-03-30T12:26:49.822Z,3.47
2018-03-30T12:29:20.210Z,3.60
2018-03-30T12:31:49.111Z,3.37
2018-03-30T12:34:17.928Z,3.60
2018-03-30T12:36:46.828Z,3.80
2018-03-30T12:39:16.428Z,4.30
2018-03-30T12:41:45.328Z,3.77
2018-03-30T12:44:14.208Z,3.73
2018-03-30T12:46:43.035Z,3.93
2018-03-30T12:49:12.140Z,4.00
2018-03-30T12:51:42.424Z,3.67
2018-03-30T12:54:11.314Z,3.57
2018-03-30T12:56:40.164Z,3.50
2018-03-30T12:59:09.276Z,4.03
2018-03-30T13:01:38.882Z,4.40
2018-03-30T13:04:08.515Z,3.80
2018-03-30T13:06:38.158Z,3.00
2018-03-30T13:09:07.171Z,3.83
2018-03-30T13:11:36.046Z,6.37
2018-03-30T13:14:04.899Z,6.00
2018-03-30T13:16:34.498Z,3.70
2018-03-30T13:19:06.462Z,4.20
2018-03-30T13:21:35.304Z,2.90
2018-03-30T13:24:04.182Z,3.73
2018-03-30T13:26:33.019Z,3.80
2018-03-30T13:29:01.873Z,3.20
2018-03-30T13:31:30.722Z,3.30
2018-03-30T13:34:00.325Z,4.47
2018-03-30T13:36:29.964Z,3.40
2018-03-30T13:38:59.581Z,3.30
2018-03-30T13:41:28.412Z,4.40
2018-03-30T13:43:57.243Z,4.47
2018-03-30T13:46:26.103Z,3.77
2018-03-30T13:48:55.696Z,4.40
2018-03-30T13:51:32.010Z,3.73
2018-03-30T13:54:06.639Z,3.63
2018-03-30T13:56:39.541Z,3.50
2018-03-30T13:59:14.921Z,3.77
2018-03-30T14:01:52.133Z,4.13
2018-03-30T14:04:20.961Z,3.70
2018-03-30T14:06:53.688Z,4.53
2018-03-30T14:09:41.181Z,4.73
2018-03-30T14:12:29.624Z,4.40
2018-03-30T14:14:58.488Z,3.97
2018-03-30T14:17:46.106Z,4.70
2018-03-30T14:20:18.579Z,7.47
2018-03-30T14:22:51.885Z,4.70
2018-03-30T14:25:26.540Z,6.07
2018-03-30T14:31:15.876Z,6.50
2018-03-30T14:33:45.285Z,5.83
2018-03-30T14:36:26.038Z,5.40
2018-03-30T14:39:05.383Z,5.90
2018-03-30T14:41:35.062Z,5.90
2018-03-30T14:44:05.338Z,6.27
2018-03-30T14:46:36.979Z,5.83
2018-03-30T14:49:07.174Z,5.57
2018-03-30T14:51:42.778Z,6.20
2018-03-30T14:54:15.306Z,5.77
2018-03-30T14:56:48.331Z,4.83
2018-03-30T14:59:27.720Z,4.80
2018-03-30T15:02:02.267Z,4.93
2018-03-30T15:07:46.019Z,4.67
2018-03-30T15:10:25.600Z,4.80
2018-03-30T15:13:16.296Z,4.80
2018-03-30T15:15:46.866Z,3.90
2018-03-30T15:18:20.110Z,4.50
2018-03-30T15:20:53.648Z,3.87
2018-03-30T15:23:25.923Z,4.40
2018-03-30T15:25:56.527Z,4.90
2018-03-30T15:28:29.949Z,4.70
2018-03-30T15:34:04.385Z,4.73
2018-03-30T15:36:38.031Z,5.53
2018-03-30T15:39:08.221Z,5.07
2018-03-30T15:41:38.198Z,4.53
2018-03-30T15:44:07.062Z,5.70
2018-03-30T15:46:50.520Z,5.03
2018-03-30T15:49:19.879Z,4.33
2018-03-30T15:51:55.487Z,5.03
2018-03-30T15:54:23.838Z,7.20
2018-03-30T15:56:57.547Z,4.70
2018-03-30T15:59:26.388Z,5.70
2018-03-30T16:01:55.617Z,4.53
2018-03-30T16:04:24.461Z,4.67
2018-03-30T16:06:53.320Z,4.60
2018-03-30T16:09:22.906Z,4.33
2018-03-30T16:11:54.195Z,5.70
2018-03-30T16:14:23.057Z,5.60
2018-03-30T16:16:53.514Z,4.83
2018-03-30T16:19:22.181Z,4.80
2018-03-30T16:21:51.274Z,5.00
2018-03-30T16:24:19.704Z,6.00
2018-03-30T16:26:48.014Z,5.73
2018-03-30T16:29:16.404Z,4.63
2018-03-30T16:31:44.754Z,6.23
2018-03-30T16:34:13.911Z,4.87
2018-03-30T16:36:42.261Z,5.17
2018-03-30T16:39:10.371Z,7.20
2018-03-30T16:41:39.237Z,5.33
2018-03-30T16:44:08.127Z,5.03
2018-03-30T16:46:36.799Z,5.00
2018-03-30T16:49:04.943Z,5.07
2018-03-30T16:51:33.104Z,5.30
2018-03-30T16:54:01.231Z,5.40
2018-03-30T16:56:30.124Z,5.40
2018-03-30T16:58:58.219Z,5.53
2018-03-30T17:01:26.622Z,5.80
2018-03-30T17:03:54.712Z,5.83
2018-03-30T17:06:22.846Z,5.67
2018-03-30T17:08:51.732Z,7.17
2018-03-30T17:11:19.870Z,6.47
2018-03-30T17:13:47.994Z,6.60
2018-03-30T17:16:16.112Z,6.57
2018-03-30T17:18:44.238Z,6.67
2018-03-30T17:21:12.350Z,5.50
2018-03-30T17:23:41.225Z,6.83
2018-03-30T17:26:10.111Z,9.27
2018-03-30T17:28:38.987Z,7.77
2018-03-30T17:31:07.114Z,7.30
2018-03-30T17:33:35.202Z,7.13
2018-03-30T17:36:03.343Z,6.20
2018-03-30T17:38:31.455Z,6.30
2018-03-30T17:40:59.583Z,6.00
2018-03-30T17:43:28.465Z,6.10
2018-03-30T17:45:57.355Z,6.50
2018-03-30T17:48:25.487Z,6.87
2018-03-30T17:50:53.595Z,7.13
2018-03-30T17:53:22.500Z,7.43
2018-03-30T17:55:50.622Z,6.40
2018-03-30T17:58:18.714Z,6.83
2018-03-30T18:00:47.918Z,6.90
2018-03-30T18:03:16.813Z,7.33
2018-03-30T18:05:45.695Z,7.13
2018-03-30T18:08:13.814Z,7.83
2018-03-30T18:10:41.990Z,7.97
2018-03-30T18:13:10.071Z,7.70
2018-03-30T18:15:38.202Z,7.33
2018-03-30T18:18:06.333Z,8.47
2018-03-30T18:20:35.206Z,8.70
2018-03-30T18:23:03.314Z,7.90
2018-03-30T18:25:32.228Z,9.20
2018-03-30T18:28:01.070Z,8.57
2018-03-30T18:30:29.951Z,9.23
2018-03-30T18:32:58.058Z,7.77
2018-03-30T18:35:26.179Z,7.60
2018-03-30T18:37:54.307Z,7.97
2018-03-30T18:40:22.422Z,6.27
2018-03-30T18:42:50.518Z,6.27
2018-03-30T18:45:18.696Z,5.40
2018-03-30T18:47:47.888Z,5.67
2018-03-30T18:50:16.049Z,6.87
2018-03-30T18:52:44.140Z,7.03
2018-03-30T18:55:13.600Z,6.83
2018-03-30T18:57:41.729Z,6.50
2018-03-30T19:00:10.632Z,6.50
2018-03-30T19:02:38.764Z,6.33
2018-03-30T19:05:06.907Z,7.30
2018-03-30T19:07:35.067Z,8.57
2018-03-30T19:10:03.917Z,8.67
2018-03-30T19:12:32.022Z,8.93
2018-03-30T19:15:00.184Z,9.70
2018-03-30T19:17:29.071Z,9.00
2018-03-30T19:19:58.051Z,9.30
2018-03-30T19:22:26.177Z,10.27
2018-03-30T19:24:54.297Z,9.67
2018-03-30T19:27:23.207Z,10.83
2018-03-30T19:29:51.313Z,10.50
2018-03-30T19:32:19.433Z,10.60
2018-03-30T19:34:48.361Z,11.33
2018-03-30T19:37:17.235Z,11.00
2018-03-30T19:39:45.359Z,11.60
2018-03-30T19:42:13.480Z,12.80
2018-03-30T19:44:41.622Z,12.00
2018-03-30T19:47:09.755Z,12.03
2018-03-30T19:49:37.899Z,12.97
2018-03-30T19:52:06.789Z,13.70
2018-03-30T19:54:35.452Z,12.70
2018-03-30T19:57:03.605Z,11.27
2018-03-30T19:59:31.717Z,13.23
2018-03-30T20:01:59.858Z,12.60
2018-03-30T20:04:27.961Z,10.70
2018-03-30T20:06:56.084Z,12.03
2018-03-30T20:09:24.206Z,11.57
2018-03-30T20:11:52.339Z,14.87
2018-03-30T20:14:20.497Z,12.00
2018-03-30T20:16:48.630Z,12.73
2018-03-30T20:19:17.508Z,12.73
2018-03-30T20:21:45.656Z,14.53
2018-03-30T20:24:13.795Z,15.57
2018-03-30T20:26:41.903Z,14.13
2018-03-30T20:29:10.021Z,14.87
2018-03-30T20:31:38.138Z,14.20
2018-03-30T20:34:06.253Z,13.03
2018-03-30T20:36:35.135Z,12.73
2018-03-30T20:39:03.254Z,12.53
2018-03-30T20:41:31.388Z,11.93
2018-03-30T20:44:00.296Z,11.97
2018-03-30T20:46:28.485Z,12.13
2018-03-30T20:48:56.701Z,12.80
2018-03-30T20:51:24.900Z,13.27
2018-03-30T20:53:53.839Z,12.53
2018-03-30T20:56:21.935Z,13.73
2018-03-30T20:58:50.065Z,12.80
2018-03-30T21:01:18.411Z,13.10
2018-03-30T21:03:47.308Z,13.00
2018-03-30T21:06:16.195Z,15.20
2018-03-30T21:08:45.076Z,15.80
2018-03-30T21:11:13.243Z,16.07
2018-03-30T21:13:41.371Z,16.13
2018-03-30T21:16:09.520Z,16.50
2018-03-30T21:18:37.654Z,15.70
2018-03-30T21:21:05.824Z,15.07
2018-03-30T21:23:34.702Z,14.53
2018-03-30T21:26:03.599Z,19.03
2018-03-30T21:28:32.483Z,16.97
2018-03-30T21:31:01.378Z,17.77
2018-03-30T21:33:30.283Z,18.23
2018-03-30T21:35:58.417Z,17.30
2018-03-30T21:38:26.526Z,17.83
2018-03-30T21:40:54.697Z,14.40
2018-03-30T21:43:22.802Z,13.10
2018-03-30T21:45:50.903Z,13.97
2018-03-30T21:48:19.025Z,13.27
2018-03-30T21:50:47.135Z,12.80
2018-03-30T21:53:15.318Z,14.47
2018-03-30T21:55:43.418Z,13.87
2018-03-30T21:58:13.098Z,15.70
2018-03-30T22:00:41.217Z,15.47
2018-03-30T22:03:09.302Z,15.60
2018-03-30T22:05:37.438Z,13.57
2018-03-30T22:08:05.601Z,10.80
2018-03-30T22:10:33.702Z,10.53
2018-03-30T22:13:01.846Z,13.07
2018-03-30T22:15:29.974Z,11.23
2018-03-30T22:17:58.867Z,12.40
2018-03-30T22:20:27.767Z,9.43
2018-03-30T22:22:56.638Z,11.73
2018-03-30T22:25:24.751Z,10.20
2018-03-30T22:27:52.850Z,7.90
2018-03-30T22:30:20.947Z,7.17
2018-03-30T22:32:49.074Z,7.23
2018-03-30T22:35:17.173Z,6.27
2018-03-30T22:37:45.288Z,5.20
2018-03-30T22:40:14.271Z,5.10
2018-03-30T22:42:43.151Z,4.80
2018-03-30T22:45:12.021Z,4.77
2018-03-30T22:47:40.116Z,4.40
2018-03-30T22:50:09.009Z,5.23
2018-03-30T22:52:37.090Z,5.60
2018-03-30T22:55:05.231Z,5.70
2018-03-30T22:57:33.319Z,6.20
2018-03-30T23:00:01.426Z,6.27
2018-03-30T23:02:29.833Z,6.30
2018-03-30T23:04:57.957Z,6.37
2018-03-30T23:07:26.310Z,7.20
2018-03-30T23:09:55.456Z,6.83
2018-03-30T23:12:23.794Z,6.33
2018-03-30T23:14:52.118Z,7.90
2018-03-30T23:17:20.479Z,7.30
2018-03-30T23:19:49.557Z,6.23
2018-03-30T23:22:18.685Z,6.43
2018-03-30T23:24:47.063Z,6.83
2018-03-30T23:27:15.416Z,7.90
2018-03-30T23:29:44.526Z,7.07
2018-03-30T23:32:12.869Z,7.87
2018-03-30T23:34:41.205Z,7.70
2018-03-30T23:37:09.608Z,10.23
2018-03-30T23:39:37.988Z,9.57
2018-03-30T23:42:06.327Z,9.17
2018-03-30T23:44:34.687Z,8.47
2018-03-30T23:47:03.089Z,8.57
2018-03-30T23:49:31.410Z,8.33
2018-03-30T23:51:59.753Z,8.23
2018-03-30T23:54:28.114Z,8.90
2018-03-30T23:56:56.488Z,8.17
2018-03-30T23:59:25.583Z,9.10
